SDR31JA GCLP-EDDB
Flight info
| Callsign | SDR31JA |
|---|---|
| Flight time | N/A |
| Altitude | 34000 |
| Route | SAMAR DCT BEXAL/N0449F360 DCT OLGAR DCT PINOX DCT RIVRO DCT TOSDI N745 ZMR N873 DELOG DCT PEXOD DCT YURZI UL14 TEPRA UN873 OBATO UM163 TSU UN858 OQQAL DCT RANUX/N0441F370 DCT VALEK DCT LIPNI UN858 LIMGO DCT MASEK T278 KLF KLF1L |
| Aircraft | A320/M-SDE2FGHIM1RWXY/HB1 |
Departure
| Time | 2026-05-04 14:10 |
|---|---|
| Airport | Gran Canaria Airport (GCLP) |
Arrival
| Time | N/A |
|---|---|
| Airport | Berlin Brandenburg Airport (EDDB) |
| Time | Latitude | Longitude | Altitude | Speed | Heading |
|---|---|---|---|---|---|
| 2026-05-04 13:33 | 27.93613 | -15.38753 | 87 ft | 0 kts | 291° |
| 2026-05-04 14:02 | 27.93614 | -15.38754 | 82 ft | 1 kts | 291° |
| 2026-05-04 14:02 | 27.93620 | -15.38774 | 85 ft | 4 kts | 291° |
| 2026-05-04 14:03 | 27.93625 | -15.38816 | 83 ft | 7 kts | 243° |
| 2026-05-04 14:03 | 27.93563 | -15.38850 | 85 ft | 12 kts | 200° |
| 2026-05-04 14:03 | 27.93493 | -15.38878 | 86 ft | 9 kts | 197° |
| 2026-05-04 14:03 | 27.93445 | -15.38862 | 83 ft | 8 kts | 117° |
| 2026-05-04 14:04 | 27.93371 | -15.38769 | 70 ft | 10 kts | 199° |
| 2026-05-04 14:04 | 27.93303 | -15.38800 | 75 ft | 9 kts | 202° |
| 2026-05-04 14:04 | 27.93241 | -15.38828 | 71 ft | 10 kts | 201° |
| 2026-05-04 14:05 | 27.93079 | -15.38907 | 76 ft | 18 kts | 201° |
| 2026-05-04 14:05 | 27.92958 | -15.38962 | 82 ft | 20 kts | 203° |
| 2026-05-04 14:05 | 27.92822 | -15.39020 | 86 ft | 21 kts | 199° |
| 2026-05-04 14:06 | 27.92703 | -15.39073 | 87 ft | 16 kts | 200° |
| 2026-05-04 14:06 | 27.92609 | -15.39113 | 90 ft | 14 kts | 201° |
| 2026-05-04 14:06 | 27.92501 | -15.39162 | 94 ft | 19 kts | 199° |
| 2026-05-04 14:06 | 27.92392 | -15.39210 | 96 ft | 15 kts | 201° |
| 2026-05-04 14:07 | 27.92309 | -15.39246 | 99 ft | 12 kts | 201° |
| 2026-05-04 14:07 | 27.92227 | -15.39282 | 99 ft | 14 kts | 201° |
| 2026-05-04 14:07 | 27.92123 | -15.39311 | 95 ft | 16 kts | 183° |
| 2026-05-04 14:07 | 27.92009 | -15.39299 | 91 ft | 16 kts | 175° |
| 2026-05-04 14:08 | 27.91915 | -15.39263 | 88 ft | 15 kts | 129° |
| 2026-05-04 14:08 | 27.91875 | -15.39156 | 85 ft | 14 kts | 111° |
| 2026-05-04 14:08 | 27.91840 | -15.39060 | 69 ft | 9 kts | 112° |
| 2026-05-04 14:08 | 27.91843 | -15.39023 | 75 ft | 5 kts | 37° |
| 2026-05-04 14:09 | 27.92168 | -15.38881 | 62 ft | 77 kts | 21° |
| 2026-05-04 14:09 | 27.92859 | -15.38574 | 46 ft | 135 kts | 21° |
| 2026-05-04 14:10 | 27.94920 | -15.37646 | 923 ft | 161 kts | 22° |
| 2026-05-04 14:10 | 27.95956 | -15.37158 | 1529 ft | 163 kts | 24° |
| 2026-05-04 14:10 | 27.97064 | -15.36637 | 1784 ft | 182 kts | 23° |
| 2026-05-04 14:10 | 27.98273 | -15.36050 | 2137 ft | 195 kts | 26° |
| 2026-05-04 14:11 | 27.99609 | -15.35477 | 2406 ft | 218 kts | 19° |
| 2026-05-04 14:11 | 28.02843 | -15.34473 | 3272 ft | 255 kts | 15° |
| 2026-05-04 14:11 | 28.04576 | -15.33957 | 3975 ft | 261 kts | 15° |
| 2026-05-04 14:12 | 28.06351 | -15.33420 | 4701 ft | 266 kts | 14° |
| 2026-05-04 14:12 | 28.08156 | -15.32865 | 5402 ft | 272 kts | 14° |
| 2026-05-04 14:12 | 28.11878 | -15.31705 | 6757 ft | 283 kts | 13° |
| 2026-05-04 14:13 | 28.13167 | -15.31302 | 7198 ft | 286 kts | 13° |
| 2026-05-04 14:13 | 28.15094 | -15.30698 | 7867 ft | 289 kts | 12° |
| 2026-05-04 14:13 | 28.17049 | -15.30085 | 8528 ft | 294 kts | 12° |
| 2026-05-04 14:13 | 28.19037 | -15.29458 | 9188 ft | 299 kts | 12° |
| 2026-05-04 14:14 | 28.21050 | -15.28822 | 9847 ft | 303 kts | 11° |
| 2026-05-04 14:14 | 28.25290 | -15.27486 | 10434 ft | 337 kts | 11° |
| 2026-05-04 14:14 | 28.27627 | -15.26755 | 10585 ft | 358 kts | 11° |
| 2026-05-04 14:15 | 28.32527 | -15.25205 | 11622 ft | 371 kts | 11° |
| 2026-05-04 14:15 | 28.37550 | -15.23605 | 12813 ft | 379 kts | 11° |
| 2026-05-04 14:16 | 28.42719 | -15.21962 | 13988 ft | 387 kts | 10° |
| 2026-05-04 14:16 | 28.45322 | -15.21133 | 14521 ft | 390 kts | 10° |
| 2026-05-04 14:17 | 28.50594 | -15.19460 | 15592 ft | 396 kts | 11° |
| 2026-05-04 14:17 | 28.53258 | -15.18615 | 16116 ft | 399 kts | 11° |
| 2026-05-04 14:17 | 28.58654 | -15.16906 | 17158 ft | 406 kts | 11° |
| 2026-05-04 14:18 | 28.61381 | -15.16041 | 17679 ft | 409 kts | 11° |
| 2026-05-04 14:18 | 28.66900 | -15.14282 | 18656 ft | 415 kts | 11° |
| 2026-05-04 14:19 | 28.72506 | -15.12494 | 19534 ft | 422 kts | 11° |
| 2026-05-04 14:19 | 28.75338 | -15.11588 | 19973 ft | 425 kts | 11° |
| 2026-05-04 14:19 | 28.78194 | -15.10673 | 20419 ft | 428 kts | 11° |
| 2026-05-04 14:19 | 28.81070 | -15.09752 | 20853 ft | 431 kts | 11° |
| 2026-05-04 14:20 | 28.83967 | -15.08824 | 21271 ft | 434 kts | 11° |
| 2026-05-04 14:20 | 28.86891 | -15.07891 | 21680 ft | 437 kts | 10° |
| 2026-05-04 14:20 | 28.89831 | -15.06956 | 22093 ft | 440 kts | 10° |
| 2026-05-04 14:21 | 28.95769 | -15.05061 | 22875 ft | 446 kts | 10° |
| 2026-05-04 14:21 | 28.98769 | -15.04099 | 23257 ft | 449 kts | 10° |
| 2026-05-04 14:21 | 29.01786 | -15.03130 | 23634 ft | 452 kts | 11° |
| 2026-05-04 14:21 | 29.04824 | -15.02151 | 23941 ft | 455 kts | 10° |
| 2026-05-04 14:22 | 29.07872 | -15.01166 | 24257 ft | 457 kts | 10° |
| 2026-05-04 14:22 | 29.10941 | -15.00174 | 24559 ft | 459 kts | 10° |
| 2026-05-04 14:22 | 29.14023 | -14.99180 | 24856 ft | 461 kts | 10° |
| 2026-05-04 14:22 | 29.17161 | -14.98170 | 25147 ft | 463 kts | 10° |
| 2026-05-04 14:23 | 29.23394 | -14.96169 | 25725 ft | 467 kts | 10° |
| 2026-05-04 14:23 | 29.26534 | -14.95161 | 26009 ft | 469 kts | 10° |
| 2026-05-04 14:23 | 29.29689 | -14.94145 | 26287 ft | 472 kts | 10° |
| 2026-05-04 14:24 | 29.32851 | -14.93123 | 26553 ft | 474 kts | 10° |
| 2026-05-04 14:24 | 29.36032 | -14.92094 | 26826 ft | 476 kts | 9° |
| 2026-05-04 14:24 | 29.39223 | -14.91065 | 27097 ft | 477 kts | 9° |
| 2026-05-04 14:24 | 29.42427 | -14.90032 | 27361 ft | 479 kts | 9° |
| 2026-05-04 14:25 | 29.45639 | -14.88992 | 27611 ft | 481 kts | 9° |
| 2026-05-04 14:25 | 29.52108 | -14.86896 | 28102 ft | 485 kts | 9° |
| 2026-05-04 14:25 | 29.55360 | -14.85844 | 28348 ft | 486 kts | 9° |
| 2026-05-04 14:26 | 29.58628 | -14.84784 | 28591 ft | 488 kts | 9° |
| 2026-05-04 14:26 | 29.61894 | -14.83725 | 28810 ft | 490 kts | 9° |
| 2026-05-04 14:26 | 29.65188 | -14.82657 | 29028 ft | 491 kts | 9° |
| 2026-05-04 14:26 | 29.68483 | -14.81588 | 29242 ft | 493 kts | 9° |
| 2026-05-04 14:27 | 29.71791 | -14.80513 | 29447 ft | 495 kts | 9° |
| 2026-05-04 14:27 | 29.75101 | -14.79432 | 29652 ft | 496 kts | 9° |
| 2026-05-04 14:27 | 29.78429 | -14.78346 | 29847 ft | 497 kts | 9° |
| 2026-05-04 14:27 | 29.81760 | -14.77258 | 30105 ft | 497 kts | 9° |
| 2026-05-04 14:28 | 29.85082 | -14.76172 | 30350 ft | 497 kts | 9° |
| 2026-05-04 14:28 | 29.88405 | -14.75085 | 30572 ft | 496 kts | 9° |
| 2026-05-04 14:28 | 29.91726 | -14.73998 | 30787 ft | 496 kts | 9° |
| 2026-05-04 14:28 | 29.95049 | -14.72908 | 31011 ft | 496 kts | 9° |
| 2026-05-04 14:29 | 30.01692 | -14.70734 | 31446 ft | 496 kts | 9° |
| 2026-05-04 14:29 | 30.08332 | -14.68567 | 31873 ft | 496 kts | 9° |
| 2026-05-04 14:30 | 30.11689 | -14.67465 | 32079 ft | 496 kts | 9° |
| 2026-05-04 14:30 | 30.15012 | -14.66374 | 32298 ft | 496 kts | 9° |
| 2026-05-04 14:30 | 30.21640 | -14.64193 | 32740 ft | 495 kts | 8° |
| 2026-05-04 14:31 | 30.24954 | -14.63104 | 32947 ft | 495 kts | 8° |
| 2026-05-04 14:31 | 30.31581 | -14.60922 | 33366 ft | 495 kts | 8° |
| 2026-05-04 14:32 | 30.38201 | -14.58726 | 33781 ft | 495 kts | 8° |
| 2026-05-04 14:32 | 30.41506 | -14.57634 | 33995 ft | 494 kts | 8° |
| 2026-05-04 14:32 | 30.44810 | -14.56544 | 34092 ft | 494 kts | 8° |
| 2026-05-04 14:33 | 30.51413 | -14.54364 | 34103 ft | 492 kts | 8° |
| 2026-05-04 14:33 | 30.57984 | -14.52194 | 34106 ft | 492 kts | 8° |
| 2026-05-04 14:33 | 30.61285 | -14.51100 | 34231 ft | 493 kts | 8° |
| 2026-05-04 14:34 | 30.64576 | -14.50010 | 34415 ft | 493 kts | 8° |
| 2026-05-04 14:34 | 30.67881 | -14.48914 | 34599 ft | 492 kts | 8° |
| 2026-05-04 14:34 | 30.71174 | -14.47818 | 34771 ft | 492 kts | 8° |
| 2026-05-04 14:34 | 30.74465 | -14.46723 | 34943 ft | 492 kts | 8° |
| 2026-05-04 14:35 | 30.77755 | -14.45630 | 35108 ft | 492 kts | 8° |
| 2026-05-04 14:35 | 30.81040 | -14.44536 | 35267 ft | 492 kts | 8° |
| 2026-05-04 14:35 | 30.84322 | -14.43439 | 35422 ft | 491 kts | 8° |
| 2026-05-04 14:35 | 30.87605 | -14.42341 | 35573 ft | 491 kts | 8° |
| 2026-05-04 14:36 | 30.90858 | -14.41046 | 35712 ft | 498 kts | 17° |
| 2026-05-04 14:36 | 30.94053 | -14.39323 | 35852 ft | 500 kts | 19° |
| 2026-05-04 14:36 | 30.97200 | -14.37588 | 36015 ft | 499 kts | 19° |
| 2026-05-04 14:37 | 31.03480 | -14.34121 | 36113 ft | 500 kts | 19° |
| 2026-05-04 14:37 | 31.09762 | -14.30657 | 36111 ft | 499 kts | 19° |
| 2026-05-04 14:38 | 31.16042 | -14.27184 | 36114 ft | 499 kts | 19° |
| 2026-05-04 14:38 | 31.22298 | -14.23727 | 36120 ft | 498 kts | 19° |
| 2026-05-04 14:39 | 31.28568 | -14.20250 | 36124 ft | 498 kts | 19° |
| 2026-05-04 14:39 | 31.34825 | -14.16786 | 36121 ft | 498 kts | 19° |
| 2026-05-04 14:40 | 31.44207 | -14.11578 | 36136 ft | 497 kts | 19° |
| 2026-05-04 14:40 | 31.50463 | -14.08096 | 36132 ft | 497 kts | 19° |
| 2026-05-04 14:41 | 31.56712 | -14.04613 | 36136 ft | 497 kts | 19° |
| 2026-05-04 14:42 | 31.69169 | -13.97644 | 36136 ft | 496 kts | 19° |
| 2026-05-04 14:42 | 31.75446 | -13.94127 | 36133 ft | 495 kts | 19° |
| 2026-05-04 14:43 | 31.81665 | -13.90640 | 36131 ft | 495 kts | 19° |
| 2026-05-04 14:43 | 31.87876 | -13.87151 | 36143 ft | 495 kts | 19° |
| 2026-05-04 14:44 | 31.94088 | -13.83649 | 36145 ft | 495 kts | 20° |